Time;durP1;ratioP1;P1;durP2;ratioP2;P2;SDS_P1;SDS_P2;PMS_P1;PMS_P2;Temp;Humidity;BMP_temperature;BMP_pressure;BME280_temperature;BME280_humidity;BME280_pressure;Samples;Min_cycle;Max_cycle;Signal;HPM_P1;HPM_P2
2021/08/16 00:00:46;;;;;;;0.13;0.13;;;;;;;24.85;80.94;98699.41;5032431;28;20025;-50
2021/08/16 00:03:12;;;;;;;0.10;0.10;;;;;;;24.59;81.95;98695.50;5032456;28;20025;-50
2021/08/16 00:05:38;;;;;;;0.00;0.00;;;;;;;24.51;81.99;98697.78;5032408;28;20034;-50
2021/08/16 00:08:09;;;;;;;8.75;0.80;;;;;;;24.61;81.46;98699.53;5030991;28;20029;-50
2021/08/16 00:10:37;;;;;;;1.85;0.90;;;;;;;24.62;81.27;98705.69;5032267;28;20036;-50
2021/08/16 00:13:03;;;;;;;0.00;0.00;;;;;;;24.30;81.39;98709.88;5047611;28;20029;-50
2021/08/16 00:15:29;;;;;;;0.10;0.10;;;;;;;24.00;82.04;98703.03;5030965;28;20028;-50
2021/08/16 00:17:58;;;;;;;0.00;0.00;;;;;;;23.63;81.70;98699.19;5032195;28;20026;-50
2021/08/16 00:20:24;;;;;;;0.10;0.03;;;;;;;23.39;82.15;98708.00;5032218;28;20025;-50
2021/08/16 00:22:49;;;;;;;0.22;0.13;;;;;;;23.20;82.50;98704.44;5047425;28;20384;-50
2021/08/16 00:25:15;;;;;;;0.30;0.30;;;;;;;23.20;83.15;98713.28;5030857;28;20510;-51
2021/08/16 00:27:41;;;;;;;0.10;0.10;;;;;;;23.11;82.76;98712.28;5047174;28;20523;-51
2021/08/16 00:30:07;;;;;;;0.38;0.25;;;;;;;23.04;82.97;98703.78;5031917;28;20025;-50
2021/08/16 00:32:33;;;;;;;0.05;0.05;;;;;;;22.88;82.47;98708.47;5032028;28;20108;-50
2021/08/16 00:34:58;;;;;;;0.80;0.30;;;;;;;22.64;82.61;98708.38;5047279;28;20109;-50
2021/08/16 00:37:24;;;;;;;0.00;0.00;;;;;;;22.48;82.43;98715.72;5031942;28;20454;-50
2021/08/16 00:39:50;;;;;;;0.00;0.00;;;;;;;22.49;83.71;98714.63;5030604;28;20036;-50
2021/08/16 00:42:15;;;;;;;3.92;0.73;;;;;;;22.82;84.05;98712.22;5031840;28;20022;-50
2021/08/16 00:44:41;;;;;;;1.05;0.15;;;;;;;23.46;83.77;98718.38;5031856;28;20032;-50
2021/08/16 00:47:10;;;;;;;0.00;0.00;;;;;;;23.93;82.74;98719.50;5047083;28;20029;-50
2021/08/16 00:49:37;;;;;;;0.00;0.00;;;;;;;24.32;82.17;98719.22;5047002;28;20403;-51
2021/08/16 00:52:05;;;;;;;0.08;0.08;;;;;;;24.46;80.86;98718.50;5031775;28;20104;-50
2021/08/16 00:54:31;;;;;;;0.08;0.08;;;;;;;24.56;80.66;98717.59;5031747;28;20380;-50
2021/08/16 00:56:59;;;;;;;0.00;0.00;;;;;;;24.74;80.59;98716.75;5046953;28;20022;-51
2021/08/16 00:59:25;;;;;;;0.00;0.00;;;;;;;24.50;80.36;98725.69;5031767;28;20026;-50
2021/08/16 01:01:51;;;;;;;0.57;0.13;;;;;;;24.35;81.13;98725.09;5031696;28;20033;-51
2021/08/16 01:04:17;;;;;;;0.00;0.00;;;;;;;24.25;81.66;98718.00;5034430;28;20018;-51
2021/08/16 01:06:42;;;;;;;0.00;0.00;;;;;;;24.10;81.40;98719.78;5051036;28;20033;-50
2021/08/16 01:09:08;;;;;;;0.00;0.00;;;;;;;24.00;81.25;98725.28;5050981;28;20031;-50
2021/08/16 01:11:34;;;;;;;0.00;0.00;;;;;;;23.69;81.09;98722.94;5035639;28;20028;-51
2021/08/16 01:14:00;;;;;;;0.10;0.10;;;;;;;23.32;80.89;98723.59;5035655;28;20511;-50
2021/08/16 01:16:25;;;;;;;0.52;0.52;;;;;;;23.10;80.94;98724.06;5035577;28;20021;-50
2021/08/16 01:18:51;;;;;;;0.00;0.00;;;;;;;22.96;81.56;98731.94;5034202;28;20030;-51
2021/08/16 01:21:19;;;;;;;0.30;0.30;;;;;;;22.91;81.89;98731.97;5035484;28;20119;-51
2021/08/16 01:23:46;;;;;;;0.17;0.17;;;;;;;22.83;81.72;98735.25;5050764;28;20511;-51
2021/08/16 01:26:12;;;;;;;0.00;0.00;;;;;;;22.70;81.96;98734.81;5033835;28;20092;-50
2021/08/16 01:28:39;;;;;;;0.08;0.08;;;;;;;22.68;82.25;98741.53;5050555;28;20040;-50
2021/08/16 01:31:07;;;;;;;0.45;0.45;;;;;;;22.67;81.68;98739.91;5034001;28;20032;-51
2021/08/16 01:33:36;;;;;;;0.00;0.00;;;;;;;22.66;82.13;98743.69;5035265;28;20025;-51
2021/08/16 01:36:03;;;;;;;0.10;0.10;;;;;;;22.90;82.56;98746.44;5033882;28;20022;-50
2021/08/16 01:38:31;;;;;;;0.43;0.25;;;;;;;23.20;82.39;98750.78;5035210;28;20021;-51
2021/08/16 01:40:57;;;;;;;0.52;0.38;;;;;;;23.68;82.70;98750.03;5033752;28;20017;-51
2021/08/16 01:43:24;;;;;;;0.00;0.00;;;;;;;24.02;81.44;98749.91;5035080;28;20029;-51
2021/08/16 01:45:52;;;;;;;0.00;0.00;;;;;;;24.39;81.17;98753.75;5034969;28;20025;-50
2021/08/16 01:48:21;;;;;;;0.22;0.22;;;;;;;24.35;79.97;98746.53;5034975;28;20021;-51
2021/08/16 01:50:49;;;;;;;0.00;0.00;;;;;;;23.89;79.91;98747.94;5034832;28;20518;-51
2021/08/16 01:53:15;;;;;;;3.10;1.13;;;;;;;23.58;80.72;98750.91;5050252;28;20515;-51
2021/08/16 01:55:41;;;;;;;9.63;2.67;;;;;;;23.54;81.32;98752.56;5033516;28;20491;-51
2021/08/16 01:58:09;;;;;;;0.10;0.10;;;;;;;23.96;81.61;98745.69;5050119;28;20036;-51
2021/08/16 02:00:35;;;;;;;0.00;0.00;;;;;;;24.62;81.05;98749.41;5033448;28;20568;-50
2021/08/16 02:03:02;;;;;;;0.20;0.15;;;;;;;25.17;79.06;98740.75;5033427;28;20078;-50
2021/08/16 02:05:27;;;;;;;0.63;0.20;;;;;;;25.63;78.28;98741.84;5034671;28;20028;-51
2021/08/16 02:07:53;;;;;;;1.75;1.17;;;;;;;25.91;77.23;98745.34;5033352;28;20025;-51
2021/08/16 02:10:20;;;;;;;0.43;0.28;;;;;;;26.16;76.84;98738.66;5034554;28;20032;-51
2021/08/16 02:12:46;;;;;;;0.00;0.00;;;;;;;26.25;75.92;98736.03;5049739;28;20025;-51
2021/08/16 02:15:12;;;;;;;0.25;0.25;;;;;;;26.31;75.46;98732.13;5034283;28;20391;-51
2021/08/16 02:17:37;;;;;;;1.05;0.30;;;;;;;26.51;74.18;98734.34;5034481;28;20025;-50
2021/08/16 02:20:05;;;;;;;0.00;0.00;;;;;;;26.68;73.80;98735.63;5034367;28;20104;-50
2021/08/16 02:22:31;;;;;;;1.48;1.15;;;;;;;26.78;73.81;98731.88;5034356;28;20022;-50
2021/08/16 02:25:00;;;;;;;0.00;0.00;;;;;;;26.71;73.68;98735.00;5034302;28;20439;-51
2021/08/16 02:27:25;;;;;;;0.00;0.00;;;;;;;26.51;74.29;98742.44;5049398;28;20056;-50
2021/08/16 02:29:51;;;;;;;0.15;0.15;;;;;;;26.44;73.51;98731.31;5049428;28;20037;-50
2021/08/16 02:32:17;;;;;;;4.53;1.42;;;;;;;26.27;71.19;98733.84;5034227;28;20044;-51
2021/08/16 02:34:43;;;;;;;2.45;0.60;;;;;;;26.06;72.72;98734.28;5034179;28;20502;-50
2021/08/16 02:37:09;;;;;;;0.88;0.88;;;;;;;26.06;73.02;98745.03;5034076;28;20053;-51
2021/08/16 02:39:35;;;;;;;0.20;0.20;;;;;;;26.19;73.49;98738.03;5049388;28;20057;-50
2021/08/16 02:42:01;;;;;;;0.28;0.28;;;;;;;26.12;72.61;98737.66;5034262;28;20100;-51
2021/08/16 02:44:26;;;;;;;2.08;1.33;;;;;;;26.15;72.60;98737.03;5034264;28;20025;-50
2021/08/16 02:46:52;;;;;;;0.22;0.22;;;;;;;25.99;72.85;98736.56;5033962;28;20480;-50
2021/08/16 02:49:18;;;;;;;0.85;0.65;;;;;;;25.83;72.70;98736.06;5033840;28;20109;-51
2021/08/16 02:51:43;;;;;;;0.20;0.20;;;;;;;26.04;73.31;98736.47;5049153;28;20025;-50
2021/08/16 02:54:09;;;;;;;0.00;0.00;;;;;;;26.30;72.66;98730.56;5033825;28;20104;-50
2021/08/16 02:56:35;;;;;;;2.00;0.52;;;;;;;26.27;73.31;98736.53;5048974;28;20022;-50
2021/08/16 02:59:00;;;;;;;13.80;0.98;;;;;;;26.10;73.67;98734.47;5033740;28;20056;-51
2021/08/16 03:01:26;;;;;;;0.00;0.00;;;;;;;25.97;73.45;98730.69;5049065;28;20026;-51
2021/08/16 03:03:52;;;;;;;0.10;0.10;;;;;;;25.86;74.14;98740.06;5032558;28;20468;-51
2021/08/16 03:06:17;;;;;;;0.20;0.20;;;;;;;25.61;74.43;98731.38;5033561;28;20029;-50
2021/08/16 03:08:43;;;;;;;0.00;0.00;;;;;;;25.41;75.12;98726.38;5033485;28;20021;-50
2021/08/16 03:11:09;;;;;;;0.20;0.08;;;;;;;25.30;75.81;98734.63;5033393;28;20438;-51
2021/08/16 03:13:35;;;;;;;0.10;0.10;;;;;;;25.12;76.17;98733.56;5033420;28;20548;-50
2021/08/16 03:16:03;;;;;;;0.05;0.05;;;;;;;24.98;76.78;98726.59;5033402;28;20026;-50
2021/08/16 03:18:29;;;;;;;0.20;0.10;;;;;;;24.79;76.44;98731.97;5033320;28;20510;-51
2021/08/16 03:20:55;;;;;;;0.25;0.25;;;;;;;24.74;75.82;98729.38;5048515;28;20159;-50
2021/08/16 03:23:21;;;;;;;0.85;0.85;;;;;;;24.76;75.24;98730.69;5048514;28;20029;-50
2021/08/16 03:25:46;;;;;;;0.00;0.00;;;;;;;24.66;75.06;98736.22;5032328;28;20388;-50
2021/08/16 03:28:12;;;;;;;0.00;0.00;;;;;;;24.59;75.82;98733.09;5048510;28;20407;-51
2021/08/16 03:30:38;;;;;;;0.00;0.00;;;;;;;24.54;76.09;98733.97;5032986;28;20442;-50
2021/08/16 03:33:03;;;;;;;0.38;0.17;;;;;;;24.46;76.48;98735.38;5033055;28;20026;-51
2021/08/16 03:35:29;;;;;;;0.52;0.52;;;;;;;24.54;76.02;98741.22;5048237;28;20435;-50
2021/08/16 03:37:55;;;;;;;0.45;0.30;;;;;;;24.55;75.69;98743.63;5048216;28;20026;-50
2021/08/16 03:40:21;;;;;;;0.00;0.00;;;;;;;24.52;75.62;98741.50;5032894;28;20403;-50
2021/08/16 03:42:46;;;;;;;0.00;0.00;;;;;;;24.45;75.44;98744.53;5031538;28;20021;-50
2021/08/16 03:45:16;;;;;;;0.00;0.00;;;;;;;24.33;74.80;98733.44;5031507;28;20025;-50
2021/08/16 03:47:41;;;;;;;0.45;0.38;;;;;;;24.27;72.77;98743.44;5032738;28;20029;-50
2021/08/16 03:50:08;;;;;;;0.25;0.25;;;;;;;24.35;72.77;98744.69;5047860;28;20025;-50
2021/08/16 03:52:33;;;;;;;0.10;0.10;;;;;;;24.38;73.78;98744.09;5047910;28;20037;-50
2021/08/16 03:55:00;;;;;;;0.00;0.00;;;;;;;24.43;72.50;98748.59;5047940;28;20040;-50
2021/08/16 03:57:25;;;;;;;0.00;0.00;;;;;;;24.44;72.69;98745.59;5032637;28;20364;-50
2021/08/16 03:59:52;;;;;;;0.05;0.00;;;;;;;24.43;71.32;98748.59;5032623;28;20040;-51
2021/08/16 04:02:18;;;;;;;0.52;0.52;;;;;;;24.41;72.26;98746.19;5031218;28;20402;-50
2021/08/16 04:04:43;;;;;;;0.00;0.00;;;;;;;24.42;72.60;98755.03;5032490;28;20025;-50
2021/08/16 04:07:10;;;;;;;0.00;0.00;;;;;;;24.35;71.23;98749.22;5032457;28;20025;-50
2021/08/16 04:09:36;;;;;;;0.10;0.10;;;;;;;24.21;71.36;98755.31;5032331;28;20068;-51
2021/08/16 04:12:02;;;;;;;0.08;0.08;;;;;;;24.14;72.66;98754.88;5032337;28;20476;-50
2021/08/16 04:14:28;;;;;;;0.00;0.00;;;;;;;24.13;73.25;98746.03;5032254;28;20034;-50
2021/08/16 04:16:54;;;;;;;0.00;0.00;;;;;;;24.20;73.27;98750.25;5032234;28;20086;-51
2021/08/16 04:19:20;;;;;;;0.25;0.25;;;;;;;24.20;72.16;98760.97;5047513;28;20036;-50
2021/08/16 04:21:45;;;;;;;0.43;0.43;;;;;;;24.19;71.10;98754.81;5047469;28;20025;-50
2021/08/16 04:24:11;;;;;;;0.00;0.00;;;;;;;24.25;69.04;98763.59;5032193;28;20025;-51
2021/08/16 04:26:37;;;;;;;0.47;0.47;;;;;;;24.26;68.86;98763.28;5047112;28;20408;-50
2021/08/16 04:29:03;;;;;;;0.05;0.05;;;;;;;24.23;70.57;98761.19;5032004;28;20074;-50
2021/08/16 04:31:28;;;;;;;0.52;0.45;;;;;;;24.13;71.05;98761.34;5047291;28;20033;-51
2021/08/16 04:33:54;;;;;;;5.28;2.20;;;;;;;24.16;70.96;98765.31;5047303;28;20036;-50
2021/08/16 04:36:21;;;;;;;0.00;0.00;;;;;;;24.19;69.61;98764.75;5047547;28;20040;-50
2021/08/16 04:38:47;;;;;;;0.10;0.10;;;;;;;24.10;67.90;98767.25;5031013;28;20021;-50
2021/08/16 04:41:13;;;;;;;1.13;1.02;;;;;;;24.04;67.50;98763.84;5047187;28;20030;-50
2021/08/16 04:43:39;;;;;;;0.38;0.20;;;;;;;24.06;68.55;98772.38;5031879;28;20029;-51
2021/08/16 04:46:04;;;;;;;0.13;0.13;;;;;;;24.02;67.89;98763.31;5047177;28;20053;-50
2021/08/16 04:48:30;;;;;;;0.45;0.45;;;;;;;23.98;67.63;98766.88;5031829;28;20030;-50
2021/08/16 04:50:56;;;;;;;0.08;0.08;;;;;;;23.96;67.50;98767.16;5031664;28;20025;-50
2021/08/16 04:53:22;;;;;;;1.75;0.40;;;;;;;23.87;68.85;98775.03;5047082;28;20385;-50
2021/08/16 04:55:47;;;;;;;0.43;0.43;;;;;;;23.87;66.68;98769.66;5031769;28;20636;-50
2021/08/16 04:58:13;;;;;;;0.00;0.00;;;;;;;23.90;67.05;98770.97;5031726;28;20018;-50
2021/08/16 05:00:39;;;;;;;0.08;0.08;;;;;;;23.88;65.50;98768.56;5031716;28;20022;-50
2021/08/16 05:03:05;;;;;;;0.82;0.82;;;;;;;23.95;63.93;98770.13;5031622;28;20021;-50
2021/08/16 05:05:30;;;;;;;0.45;0.25;;;;;;;23.97;63.49;98768.75;5030244;28;20033;-51
2021/08/16 05:07:59;;;;;;;0.47;0.43;;;;;;;23.98;64.28;98775.69;5031717;28;20032;-50
2021/08/16 05:10:28;;;;;;;0.65;0.65;;;;;;;23.98;64.61;98781.06;5031530;28;20025;-51
2021/08/16 05:12:56;;;;;;;0.17;0.17;;;;;;;23.91;62.20;98776.06;5031603;28;20018;-50
2021/08/16 05:15:22;;;;;;;0.20;0.20;;;;;;;23.78;61.88;98774.06;5031584;28;20028;-50
2021/08/16 05:17:48;;;;;;;0.00;0.00;;;;;;;23.63;62.12;98780.34;5031580;28;20071;-50
2021/08/16 05:20:15;;;;;;;1.70;0.98;;;;;;;23.48;62.60;98783.19;5030167;28;20079;-50
2021/08/16 05:22:43;;;;;;;0.10;0.10;;;;;;;23.31;64.18;98781.72;5046778;28;20076;-50
2021/08/16 05:25:10;;;;;;;0.17;0.17;;;;;;;23.22;65.47;98790.63;5031465;28;20033;-50
2021/08/16 05:27:36;;;;;;;0.00;0.00;;;;;;;23.15;66.18;98788.28;5046558;28;20061;-50
2021/08/16 05:30:03;;;;;;;0.28;0.28;;;;;;;23.14;67.28;98794.75;5031358;28;20017;-50
2021/08/16 05:32:30;;;;;;;1.02;0.75;;;;;;;23.10;68.17;98794.50;5031439;28;20045;-51
2021/08/16 05:34:57;;;;;;;0.00;0.00;;;;;;;22.98;68.63;98790.53;5031440;28;20025;-50
2021/08/16 05:37:23;;;;;;;10.88;5.20;;;;;;;22.93;67.87;98792.16;5029993;28;20075;-50
2021/08/16 05:39:48;;;;;;;17.98;5.78;;;;;;;22.92;67.10;98798.63;5031363;28;20025;-50
2021/08/16 05:42:17;;;;;;;10.48;5.28;;;;;;;22.93;67.17;98804.75;5031346;28;20079;-50
2021/08/16 05:44:43;;;;;;;9.30;5.20;;;;;;;22.92;66.98;98803.19;5031333;28;20029;-50
2021/08/16 05:47:09;;;;;;;13.38;5.05;;;;;;;22.97;67.16;98808.47;5030221;28;20063;-50
2021/08/16 05:49:35;;;;;;;10.20;5.93;;;;;;;23.05;65.87;98804.44;5032650;28;20063;-50
2021/08/16 05:52:01;;;;;;;9.45;5.75;;;;;;;23.15;66.12;98806.25;5033648;28;20030;-50
2021/08/16 05:54:27;;;;;;;10.27;4.97;;;;;;;23.32;65.45;98804.75;5050177;28;20021;-50
2021/08/16 05:56:52;;;;;;;14.45;5.72;;;;;;;23.45;64.66;98805.97;5050108;28;20498;-50
2021/08/16 05:59:18;;;;;;;12.63;7.05;;;;;;;23.60;64.05;98809.59;5050162;28;20036;-50
2021/08/16 06:01:44;;;;;;;11.35;6.15;;;;;;;23.78;63.61;98808.88;5050026;28;20406;-50
2021/08/16 06:04:10;;;;;;;15.32;5.50;;;;;;;23.98;62.32;98815.91;5050093;28;20447;-50
2021/08/16 06:06:36;;;;;;;10.18;5.53;;;;;;;24.05;61.78;98821.75;5034668;28;20450;-50
2021/08/16 06:09:04;;;;;;;10.77;7.85;;;;;;;24.00;62.50;98818.31;5034564;28;20021;-50
2021/08/16 06:11:30;;;;;;;10.00;6.05;;;;;;;23.97;62.54;98819.69;5034580;28;20022;-50
2021/08/16 06:13:57;;;;;;;18.13;5.82;;;;;;;24.09;63.31;98830.03;5034564;28;20093;-50
2021/08/16 06:16:23;;;;;;;16.05;6.25;;;;;;;24.22;63.68;98837.38;5034500;28;20464;-50
2021/08/16 06:18:49;;;;;;;16.23;6.45;;;;;;;24.35;63.35;98837.75;5049750;28;20029;-50
2021/08/16 06:21:15;;;;;;;7.43;5.00;;;;;;;24.39;62.12;98842.28;5034361;28;20619;-50
2021/08/16 06:23:41;;;;;;;17.60;6.50;;;;;;;24.40;62.10;98843.84;5034400;28;20421;-50
2021/08/16 06:26:08;;;;;;;12.98;4.68;;;;;;;24.60;61.46;98847.41;5033928;28;20063;-50
2021/08/16 06:28:34;;;;;;;16.20;8.85;;;;;;;24.74;60.68;98853.66;5034276;28;20075;-50
2021/08/16 06:30:59;;;;;;;13.80;5.13;;;;;;;24.65;59.91;98853.50;5034161;28;20025;-51
2021/08/16 06:33:25;;;;;;;26.35;19.63;;;;;;;24.51;60.71;98853.41;5034091;28;20025;-51
2021/08/16 06:35:52;;;;;;;63.25;42.72;;;;;;;24.44;60.63;98858.28;5034110;28;20442;-50
2021/08/16 06:38:23;;;;;;;6.07;4.25;;;;;;;24.43;60.35;98855.91;5034048;28;20095;-50
2021/08/16 06:40:51;;;;;;;7.63;4.00;;;;;;;24.37;60.10;98854.34;5034035;28;20055;-50
2021/08/16 06:43:17;;;;;;;14.80;8.85;;;;;;;24.24;59.21;98861.22;5032700;28;20474;-50
2021/08/16 06:45:43;;;;;;;7.20;4.63;;;;;;;24.33;59.25;98864.88;5033904;28;20026;-50
2021/08/16 06:48:09;;;;;;;10.77;3.58;;;;;;;24.39;59.08;98869.09;5033904;28;20032;-50
2021/08/16 06:50:35;;;;;;;10.48;3.67;;;;;;;24.47;58.83;98862.31;5033782;28;20026;-50
2021/08/16 06:53:00;;;;;;;7.50;3.65;;;;;;;24.55;57.93;98858.19;5033843;28;20021;-50
2021/08/16 06:55:26;;;;;;;9.65;3.15;;;;;;;24.61;57.68;98863.22;5033689;28;20032;-50
2021/08/16 06:57:52;;;;;;;12.57;3.30;;;;;;;24.63;58.29;98865.59;5033703;28;20484;-50
2021/08/16 07:00:18;;;;;;;6.60;3.00;;;;;;;24.70;57.83;98856.09;5033127;28;20246;-50
2021/08/16 07:02:43;;;;;;;6.90;3.28;;;;;;;24.77;57.86;98866.50;5033161;28;20033;-50
2021/08/16 07:05:10;;;;;;;5.07;3.20;;;;;;;24.74;57.64;98863.59;5048874;28;20045;-50
2021/08/16 07:07:36;;;;;;;7.35;3.33;;;;;;;24.72;58.08;98867.34;5033467;28;20575;-50
2021/08/16 07:10:03;;;;;;;53.85;37.65;;;;;;;24.72;57.96;98864.66;5048720;28;20045;-50
2021/08/16 07:12:29;;;;;;;12.20;8.70;;;;;;;24.73;58.00;98873.53;5033391;28;20145;-50
2021/08/16 07:14:55;;;;;;;13.23;10.20;;;;;;;24.77;57.63;98869.19;5032125;28;20025;-50
2021/08/16 07:17:20;;;;;;;10.15;4.18;;;;;;;24.79;57.78;98871.56;5033297;28;20036;-50
2021/08/16 07:19:46;;;;;;;6.00;3.42;;;;;;;24.92;57.63;98868.94;5033310;28;20040;-50
2021/08/16 07:22:12;;;;;;;5.53;3.10;;;;;;;25.03;57.39;98871.50;5033307;28;20021;-50
2021/08/16 07:24:38;;;;;;;11.55;4.10;;;;;;;25.06;57.14;98885.13;5048466;28;20060;-50
2021/08/16 07:27:04;;;;;;;11.82;3.58;;;;;;;25.00;56.87;98874.78;5032892;28;20041;-50
2021/08/16 07:29:30;;;;;;;17.85;4.35;;;;;;;25.17;56.67;98877.72;5033092;28;20056;-50
2021/08/16 07:31:59;;;;;;;7.28;2.88;;;;;;;25.47;55.17;98889.94;5033036;28;20049;-51
2021/08/16 07:34:25;;;;;;;6.70;2.80;;;;;;;25.57;55.00;98888.94;5033045;28;20030;-50
2021/08/16 07:37:12;;;;;;;10.07;2.92;;;;;;;25.55;54.31;98884.97;5033003;28;20032;-50
2021/08/16 07:39:38;;;;;;;7.45;3.03;;;;;;;25.65;53.82;98882.09;5032867;28;20025;-51
2021/08/16 07:42:04;;;;;;;10.40;3.08;;;;;;;26.08;52.43;98884.59;5048231;28;20075;-50
2021/08/16 07:44:29;;;;;;;5.80;2.40;;;;;;;26.48;51.07;98885.69;5048163;28;20124;-51
2021/08/16 07:46:59;;;;;;;6.50;2.90;;;;;;;26.49;51.01;98879.22;5032888;28;20022;-51
2021/08/16 07:49:25;;;;;;;8.52;2.90;;;;;;;26.68;50.86;98883.69;5032714;28;20029;-50
2021/08/16 07:51:51;;;;;;;8.40;2.60;;;;;;;26.86;50.04;98896.25;5032707;28;20026;-50
2021/08/16 07:54:17;;;;;;;9.48;3.05;;;;;;;26.75;50.18;98896.75;5032675;28;20067;-50
2021/08/16 07:56:49;;;;;;;5.75;2.55;;;;;;;26.53;49.67;98903.63;5031291;28;20112;-50
2021/08/16 07:59:15;;;;;;;6.75;2.33;;;;;;;26.44;50.50;98906.25;5032647;28;20037;-50
2021/08/16 08:01:40;;;;;;;5.82;2.65;;;;;;;26.36;50.59;98887.28;5047877;28;20511;-51
2021/08/16 08:04:06;;;;;;;6.43;2.88;;;;;;;26.35;50.86;98899.94;5032494;28;20030;-51
2021/08/16 08:06:32;;;;;;;8.18;2.47;;;;;;;26.53;50.39;98894.78;5032404;28;20057;-50
2021/08/16 08:08:58;;;;;;;4.93;2.60;;;;;;;26.87;48.54;98905.91;5047623;28;20495;-50
2021/08/16 08:11:23;;;;;;;7.60;3.28;;;;;;;27.22;47.15;98892.72;5032301;28;20022;-50
2021/08/16 08:13:49;;;;;;;9.32;2.60;;;;;;;27.59;45.40;98898.09;5032070;28;20035;-50
2021/08/16 08:16:15;;;;;;;8.20;2.50;;;;;;;27.93;44.01;98900.22;5032326;28;20025;-50
2021/08/16 08:18:41;;;;;;;7.40;2.55;;;;;;;28.23;44.51;98906.72;5047478;28;20403;-51
2021/08/16 08:21:07;;;;;;;7.97;2.75;;;;;;;28.33;44.70;98908.31;5032196;28;20028;-50
2021/08/16 08:23:33;;;;;;;8.95;2.92;;;;;;;28.82;42.72;98903.69;5032126;28;20030;-50
2021/08/16 08:25:58;;;;;;;5.18;2.50;;;;;;;29.32;42.10;98915.19;5031862;28;20092;-50
2021/08/16 08:28:24;;;;;;;4.07;2.35;;;;;;;29.39;41.95;98919.00;5032075;28;20025;-51
2021/08/16 08:30:50;;;;;;;7.25;2.80;;;;;;;29.37;42.03;98912.31;5047217;28;20522;-50
2021/08/16 08:33:17;;;;;;;8.35;3.28;;;;;;;29.36;42.16;98916.94;5032007;28;20028;-50
2021/08/16 08:35:47;;;;;;;4.00;2.35;;;;;;;29.57;41.43;98917.06;5031983;28;20428;-51
2021/08/16 08:38:14;;;;;;;5.63;2.50;;;;;;;29.58;41.10;98917.84;5031939;28;20096;-50
2021/08/16 08:40:42;;;;;;;4.70;2.80;;;;;;;29.14;41.04;98925.19;5030646;28;20120;-50
2021/08/16 08:43:14;;;;;;;7.28;2.33;;;;;;;28.66;42.06;98930.34;5030603;28;20022;-50
2021/08/16 08:45:41;;;;;;;6.13;2.78;;;;;;;28.32;43.28;98931.03;5031903;28;20025;-51
2021/08/16 08:48:08;;;;;;;6.68;2.58;;;;;;;27.99;44.34;98930.53;5047218;28;20507;-50
2021/08/16 08:50:34;;;;;;;4.68;2.53;;;;;;;27.67;44.60;98935.91;5030397;28;20029;-50
2021/08/16 08:53:02;;;;;;;8.80;5.07;;;;;;;27.43;44.87;98936.22;5031804;28;20526;-50
2021/08/16 08:55:28;;;;;;;8.82;3.15;;;;;;;27.10;45.12;98944.47;5031768;28;20025;-50
2021/08/16 08:58:02;;;;;;;8.93;3.65;;;;;;;26.78;45.22;98941.91;5047089;28;20018;-50
2021/08/16 09:00:28;;;;;;;6.45;3.00;;;;;;;26.60;45.13;98940.94;5031721;28;20426;-50
2021/08/16 09:03:03;;;;;;;15.18;3.00;;;;;;;26.08;44.81;98943.78;5047013;28;20025;-50
2021/08/16 09:05:31;;;;;;;10.05;2.58;;;;;;;25.33;46.67;98952.75;5046935;28;20037;-50
2021/08/16 09:08:00;;;;;;;9.93;2.72;;;;;;;24.66;48.38;98951.69;5031641;28;20084;-50
2021/08/16 09:10:27;;;;;;;10.20;2.40;;;;;;;24.25;50.40;98972.81;5031546;28;20051;-50
2021/08/16 09:13:01;;;;;;;5.68;1.80;;;;;;;23.99;50.81;98962.31;5031595;28;20104;-50
2021/08/16 09:15:29;;;;;;;5.05;1.65;;;;;;;23.82;51.17;98975.31;5031639;28;20060;-49
2021/08/16 09:18:01;;;;;;;4.03;1.52;;;;;;;23.79;51.41;98973.19;5031599;28;20396;-50
2021/08/16 09:20:32;;;;;;;8.23;2.65;;;;;;;23.85;52.20;98975.56;5031572;28;20068;-50
2021/08/16 09:23:14;;;;;;;3.40;1.33;;;;;;;23.98;51.47;98982.13;5031586;28;20026;-50
2021/08/16 09:25:53;;;;;;;3.45;1.75;;;;;;;24.30;49.25;98984.25;5034547;28;20044;-51
2021/08/16 09:28:32;;;;;;;5.82;2.15;;;;;;;24.63;49.09;98986.34;5035417;28;20117;-50
2021/08/16 09:31:15;;;;;;;6.65;1.98;;;;;;;25.07;47.91;98990.66;5050568;28;20155;-51
2021/08/16 09:34:11;;;;;;;6.03;2.75;;;;;;;25.30;46.58;98991.75;5035403;28;20459;-50
2021/08/16 09:36:39;;;;;;;7.60;2.22;;;;;;;25.31;45.80;98982.59;5022475;28;20621;-50
2021/08/16 09:39:22;;;;;;;6.50;2.67;;;;;;;25.44;44.44;98978.38;5033885;28;20515;-50
2021/08/16 09:41:57;;;;;;;6.38;2.60;;;;;;;25.75;44.69;98988.66;5035241;28;20033;-50
2021/08/16 09:44:24;;;;;;;9.73;2.80;;;;;;;25.94;44.86;98992.16;5035144;28;20041;-50
2021/08/16 09:47:01;;;;;;;12.02;3.25;;;;;;;26.04;44.87;98989.31;5033786;28;20422;-50
2021/08/16 09:49:28;;;;;;;10.05;3.00;;;;;;;26.38;43.83;98993.56;5034963;28;20029;-50
2021/08/16 09:52:11;;;;;;;5.72;2.53;;;;;;;27.18;42.19;98983.34;5035019;28;20021;-50
2021/08/16 09:54:39;;;;;;;6.10;2.72;;;;;;;27.73;40.42;98977.03;5035350;28;20431;-50
2021/08/16 09:57:07;;;;;;;6.95;3.00;;;;;;;29.16;38.17;98971.66;5034852;28;20057;-50
2021/08/16 09:59:34;;;;;;;6.88;2.83;;;;;;;29.85;37.11;98970.84;5033562;28;20021;-50
2021/08/16 10:02:01;;;;;;;8.20;2.70;;;;;;;31.23;34.29;98968.66;5034789;28;20029;-51
2021/08/16 10:04:29;;;;;;;4.60;2.72;;;;;;;32.76;31.41;98966.13;5034777;28;20022;-51
2021/08/16 10:06:58;;;;;;;7.63;3.10;;;;;;;33.79;30.87;98966.75;5034608;28;20032;-50
2021/08/16 10:09:26;;;;;;;8.45;3.15;;;;;;;34.57;29.29;98969.84;5034571;28;20017;-48
2021/08/16 10:11:53;;;;;;;9.23;3.25;;;;;;;35.04;27.60;98971.72;5034623;28;20025;-48
2021/08/16 10:14:22;;;;;;;5.18;2.90;;;;;;;35.64;26.34;98973.31;5034548;28;20450;-48
2021/08/16 10:16:52;;;;;;;7.88;2.90;;;;;;;35.96;26.33;98966.56;5034536;28;20306;-48
2021/08/16 10:19:27;;;;;;;10.15;3.00;;;;;;;35.36;26.99;98964.25;5034787;28;20240;-48
2021/08/16 10:21:59;;;;;;;7.68;2.80;;;;;;;34.89;27.51;98969.84;5049737;28;20075;-48
2021/08/16 10:24:30;;;;;;;5.72;2.90;;;;;;;35.12;27.24;98970.72;5034457;28;20028;-48
2021/08/16 10:27:03;;;;;;;7.53;3.17;;;;;;;35.22;26.67;98969.41;5034109;28;20053;-48
2021/08/16 10:29:30;;;;;;;5.70;2.72;;;;;;;35.26;26.28;98972.22;5034224;28;20029;-48
2021/08/16 10:31:59;;;;;;;7.50;2.97;;;;;;;35.36;25.87;98972.44;5034185;28;20550;-49
2021/08/16 10:34:31;;;;;;;8.82;3.17;;;;;;;35.09;25.95;98965.97;5034132;28;20025;-48
2021/08/16 10:37:03;;;;;;;8.40;4.10;;;;;;;33.61;26.67;98967.06;5032814;28;20396;-48
2021/08/16 10:39:40;;;;;;;6.43;3.67;;;;;;;32.40;28.75;98977.75;5034160;28;20025;-51
2021/08/16 10:42:09;;;;;;;9.52;3.22;;;;;;;31.71;29.56;98980.06;5034088;28;20029;-51
2021/08/16 10:44:43;;;;;;;5.95;2.92;;;;;;;31.61;29.84;98988.63;5034051;28;20502;-51
2021/08/16 10:47:11;;;;;;;5.93;2.58;;;;;;;32.59;29.01;98982.66;5049300;28;20041;-51
2021/08/16 10:49:40;;;;;;;7.80;2.63;;;;;;;32.79;28.61;98975.50;5032544;28;20087;-51
2021/08/16 10:52:19;;;;;;;6.18;2.70;;;;;;;32.38;29.50;98972.66;5049187;28;20120;-51
2021/08/16 10:54:45;;;;;;;6.47;2.92;;;;;;;32.69;29.73;98974.03;5033838;28;20087;-50
2021/08/16 10:57:11;;;;;;;6.80;3.22;;;;;;;32.69;28.28;98975.97;5033692;28;20030;-50
2021/08/16 10:59:38;;;;;;;9.27;2.90;;;;;;;32.87;28.31;98960.22;5033798;28;20117;-51
2021/08/16 11:02:04;;;;;;;8.05;3.00;;;;;;;32.78;28.15;98955.69;5033675;28;20021;-49
2021/08/16 11:04:31;;;;;;;7.07;3.40;;;;;;;32.12;29.58;98964.81;5033618;28;20029;-50
2021/08/16 11:07:00;;;;;;;7.57;2.95;;;;;;;31.36;30.93;98966.78;5032275;28;20029;-50
2021/08/16 11:09:28;;;;;;;10.82;3.38;;;;;;;31.20;31.20;98968.50;5033445;28;20049;-50
2021/08/16 11:12:03;;;;;;;11.60;3.28;;;;;;;31.02;31.26;98959.72;5048884;28;20105;-50
2021/08/16 11:14:30;;;;;;;8.63;2.97;;;;;;;31.92;30.58;98949.38;5033480;28;20057;-50
2021/08/16 11:16:56;;;;;;;6.72;2.63;;;;;;;33.20;28.62;98947.25;5032047;28;20514;-50
2021/08/16 11:19:24;;;;;;;4.53;2.45;;;;;;;33.98;27.13;98947.78;5031974;28;20026;-48
2021/08/16 11:21:56;;;;;;;9.20;3.08;;;;;;;33.59;26.46;98949.47;5033271;28;20029;-48
2021/08/16 11:24:34;;;;;;;7.95;3.28;;;;;;;32.56;27.51;98950.72;5033243;28;20021;-48
2021/08/16 11:27:09;;;;;;;7.05;2.83;;;;;;;32.12;28.19;98943.09;5033021;28;20053;-51
2021/08/16 11:29:37;;;;;;;12.02;3.70;;;;;;;32.72;28.49;98948.09;5033086;28;20046;-50
2021/08/16 11:32:05;;;;;;;5.50;2.85;;;;;;;33.85;26.29;98949.03;5033109;28;20503;-48